TimeEST,TemperatureF,Dew PointF,Humidity,Sea Level PressureIn,VisibilityMPH,Wind Direction,Wind SpeedMPH,Gust SpeedMPH,PrecipitationIn,Events,Conditions,WindDirDegrees,DateUTC
12:53 AM,37.0,35.1,93,30.01,10.0,WNW,3.5,-,N/A,,Clear,290,2012-11-05 05:53:00
1:53 AM,41.0,35.1,79,30.03,10.0,North,5.8,-,N/A,,Mostly Cloudy,360,2012-11-05 06:53:00
2:53 AM,42.1,35.1,76,30.04,10.0,NNE,8.1,-,N/A,,Overcast,30,2012-11-05 07:53:00
3:53 AM,41.0,34.0,76,30.05,10.0,NNE,4.6,-,N/A,,Mostly Cloudy,20,2012-11-05 08:53:00
4:53 AM,39.0,30.9,73,30.06,10.0,NNE,4.6,-,N/A,,Scattered Clouds,20,2012-11-05 09:53:00
5:53 AM,37.0,30.0,76,30.07,10.0,North,3.5,-,N/A,,Clear,350,2012-11-05 10:53:00
6:53 AM,33.1,30.0,89,30.09,10.0,NNW,3.5,-,N/A,,Clear,340,2012-11-05 11:53:00
7:53 AM,37.9,32.0,79,30.10,10.0,Calm,Calm,-,N/A,,Clear,0,2012-11-05 12:53:00
8:53 AM,44.1,30.0,58,30.11,10.0,East,3.5,-,N/A,,Clear,80,2012-11-05 13:53:00
9:53 AM,46.9,30.0,52,30.10,10.0,NW,4.6,-,N/A,,Clear,320,2012-11-05 14:53:00
10:53 AM,48.9,28.9,46,30.09,10.0,Variable,3.5,-,N/A,,Clear,0,2012-11-05 15:53:00
11:53 AM,52.0,30.9,45,30.08,10.0,NNW,8.1,-,N/A,,Clear,330,2012-11-05 16:53:00
12:53 PM,52.0,30.0,43,30.05,10.0,Variable,3.5,-,N/A,,Clear,0,2012-11-05 17:53:00
1:53 PM,53.1,28.9,40,30.04,10.0,Calm,Calm,-,N/A,,Clear,0,2012-11-05 18:53:00
2:53 PM,55.0,28.9,37,30.02,10.0,Variable,3.5,-,N/A,,Clear,0,2012-11-05 19:53:00
3:53 PM,54.0,27.0,35,30.03,10.0,ENE,3.5,-,N/A,,Clear,60,2012-11-05 20:53:00
4:53 PM,51.1,30.9,46,30.04,10.0,NE,4.6,-,N/A,,Clear,40,2012-11-05 21:53:00
5:53 PM,44.1,30.0,58,30.05,10.0,Calm,Calm,-,N/A,,Clear,0,2012-11-05 22:53:00
6:53 PM,39.9,30.0,68,30.08,10.0,Calm,Calm,-,N/A,,Clear,0,2012-11-05 23:53:00
7:53 PM,39.0,30.9,73,30.10,10.0,Calm,Calm,-,N/A,,Clear,0,2012-11-06 00:53:00
8:53 PM,37.0,30.0,76,30.10,10.0,Calm,Calm,-,N/A,,Clear,0,2012-11-06 01:53:00
9:53 PM,37.0,30.0,76,30.12,10.0,Calm,Calm,-,N/A,,Clear,0,2012-11-06 02:53:00
10:53 PM,34.0,28.9,82,30.11,10.0,Calm,Calm,-,N/A,,Clear,0,2012-11-06 03:53:00
11:53 PM,32.0,28.0,85,30.12,10.0,Calm,Calm,-,N/A,,Clear,0,2012-11-06 04:53:00